createdAt,value
2022-08-30T00:01:14.059Z,90.80
2022-08-30T00:03:46.696Z,90.90
2022-08-30T00:06:15.825Z,91.00
2022-08-30T00:08:44.202Z,91.00
2022-08-30T00:11:14.370Z,91.00
2022-08-30T00:13:43.165Z,91.20
2022-08-30T00:16:10.653Z,91.30
2022-08-30T00:18:38.213Z,91.30
2022-08-30T00:21:06.282Z,91.30
2022-08-30T00:23:33.293Z,91.40
2022-08-30T00:26:00.562Z,91.60
2022-08-30T00:28:27.506Z,91.60
2022-08-30T00:30:54.863Z,91.60
2022-08-30T00:33:23.038Z,91.70
2022-08-30T00:35:50.474Z,91.80
2022-08-30T00:38:17.263Z,91.80
2022-08-30T00:40:45.483Z,91.90
2022-08-30T00:43:23.267Z,91.90
2022-08-30T00:45:51.109Z,92.10
2022-08-30T00:48:18.248Z,92.20
2022-08-30T00:50:58.434Z,92.20
2022-08-30T00:53:29.032Z,92.20
2022-08-30T00:55:56.309Z,92.10
2022-08-30T00:58:28.007Z,92.30
2022-08-30T01:00:57.015Z,92.10
2022-08-30T01:03:24.136Z,92.30
2022-08-30T01:05:52.418Z,92.40
2022-08-30T01:08:22.190Z,92.60
2022-08-30T01:10:51.335Z,92.50
2022-08-30T01:13:18.380Z,92.70
2022-08-30T01:15:46.247Z,92.70
2022-08-30T01:18:14.903Z,92.90
2022-08-30T01:20:54.143Z,93.00
2022-08-30T01:23:21.982Z,93.30
2022-08-30T01:25:50.586Z,93.20
2022-08-30T01:28:23.733Z,93.50
2022-08-30T01:30:51.489Z,93.50
2022-08-30T01:33:22.159Z,93.50
2022-08-30T01:35:54.085Z,93.50
2022-08-30T01:38:35.574Z,93.60
2022-08-30T01:41:16.797Z,93.80
2022-08-30T01:43:44.202Z,93.70
2022-08-30T01:46:12.225Z,93.70
2022-08-30T01:48:42.303Z,93.80
2022-08-30T01:51:21.859Z,93.90
2022-08-30T01:53:48.754Z,93.90
2022-08-30T01:56:15.710Z,93.90
2022-08-30T01:58:42.451Z,94.10
2022-08-30T02:01:12.752Z,94.20
2022-08-30T02:03:41.559Z,94.30
2022-08-30T02:06:10.740Z,94.50
2022-08-30T02:08:38.195Z,94.60
2022-08-30T02:11:06.545Z,94.60
2022-08-30T02:13:35.236Z,94.60
2022-08-30T02:16:01.918Z,94.70
2022-08-30T02:18:29.126Z,94.60
2022-08-30T02:20:55.863Z,94.60
2022-08-30T02:23:22.603Z,94.70
2022-08-30T02:25:49.386Z,94.80
2022-08-30T02:28:16.108Z,94.70
2022-08-30T02:30:46.502Z,94.70
2022-08-30T02:33:13.384Z,94.90
2022-08-30T02:35:40.461Z,94.80
2022-08-30T02:38:07.981Z,94.80
2022-08-30T02:40:35.238Z,94.80
2022-08-30T02:43:06.089Z,94.80
2022-08-30T02:45:32.961Z,94.90
2022-08-30T02:47:59.977Z,95.00
2022-08-30T02:50:26.914Z,95.10
2022-08-30T02:52:54.373Z,95.10
2022-08-30T02:55:22.685Z,95.20
2022-08-30T02:57:49.598Z,95.20
2022-08-30T03:00:19.376Z,95.30
2022-08-30T03:02:46.198Z,95.40
2022-08-30T03:05:15.480Z,95.50
2022-08-30T03:07:43.344Z,95.60
2022-08-30T03:10:10.965Z,95.60
2022-08-30T03:12:38.055Z,95.80
2022-08-30T03:15:10.546Z,95.80
2022-08-30T03:17:37.267Z,95.90
2022-08-30T03:20:05.047Z,95.90
2022-08-30T03:22:32.001Z,96.00
2022-08-30T03:24:59.668Z,96.10
2022-08-30T03:27:28.057Z,96.20
2022-08-30T03:29:55.274Z,96.40
2022-08-30T03:32:22.729Z,96.40
2022-08-30T03:34:50.229Z,96.40
2022-08-30T03:37:17.440Z,96.50
2022-08-30T03:39:45.510Z,96.50
2022-08-30T03:42:12.704Z,96.50
2022-08-30T03:44:39.851Z,96.60
2022-08-30T03:47:08.458Z,96.70
2022-08-30T03:49:35.623Z,96.80
2022-08-30T03:52:02.748Z,96.90
2022-08-30T03:54:29.464Z,97.10
2022-08-30T03:56:56.459Z,97.50
2022-08-30T03:59:23.416Z,97.20
2022-08-30T04:01:50.266Z,97.20
2022-08-30T04:04:20.942Z,97.20
2022-08-30T04:06:48.776Z,97.20
2022-08-30T04:09:15.572Z,97.20
2022-08-30T04:11:42.554Z,97.30
2022-08-30T04:14:09.352Z,97.30
2022-08-30T04:16:36.455Z,97.30
2022-08-30T04:19:04.273Z,97.30
2022-08-30T04:21:31.081Z,97.30
2022-08-30T04:23:58.003Z,97.40
2022-08-30T04:26:29.315Z,97.50
2022-08-30T04:28:57.569Z,97.50
2022-08-30T04:31:24.476Z,97.70
2022-08-30T04:33:51.291Z,97.80
2022-08-30T04:36:18.008Z,98.00
2022-08-30T04:38:44.731Z,98.10
2022-08-30T04:41:18.998Z,98.10
2022-08-30T04:43:48.301Z,98.10
2022-08-30T04:46:15.107Z,98.20
2022-08-30T04:48:42.131Z,98.10
2022-08-30T04:51:14.079Z,98.20
2022-08-30T04:53:42.252Z,98.10
2022-08-30T04:56:11.514Z,98.20
2022-08-30T04:58:38.565Z,98.40
2022-08-30T05:01:05.545Z,98.40
2022-08-30T05:03:33.481Z,98.40
2022-08-30T05:06:00.260Z,98.40
2022-08-30T05:08:27.019Z,98.40
2022-08-30T05:10:55.235Z,98.40
2022-08-30T05:13:24.349Z,98.40
2022-08-30T05:16:04.421Z,98.40
2022-08-30T05:18:31.333Z,98.60
2022-08-30T05:21:17.111Z,98.60
2022-08-30T05:23:44.403Z,98.70
2022-08-30T05:26:20.468Z,98.70
2022-08-30T05:28:48.995Z,98.80
2022-08-30T05:31:20.120Z,98.90
2022-08-30T05:33:48.600Z,98.90
2022-08-30T05:36:18.511Z,98.90
2022-08-30T05:38:45.606Z,99.00
2022-08-30T05:41:13.486Z,99.00
2022-08-30T05:43:40.284Z,99.00
2022-08-30T05:46:10.640Z,98.90
2022-08-30T05:48:38.451Z,99.00
2022-08-30T05:51:09.793Z,98.90
2022-08-30T05:53:36.951Z,98.80
2022-08-30T05:56:05.910Z,98.80
2022-08-30T05:58:33.401Z,98.60
2022-08-30T06:01:00.609Z,98.60
2022-08-30T06:03:28.175Z,98.50
2022-08-30T06:05:55.000Z,98.40
2022-08-30T06:08:22.270Z,98.30
2022-08-30T06:10:49.121Z,98.30
2022-08-30T06:13:15.879Z,98.10
2022-08-30T06:15:47.151Z,98.00
2022-08-30T06:18:14.135Z,97.90
2022-08-30T06:20:47.445Z,97.80
2022-08-30T06:23:17.992Z,97.90
2022-08-30T06:25:44.956Z,97.80
2022-08-30T06:28:12.339Z,97.90
2022-08-30T06:30:41.591Z,97.70
2022-08-30T06:33:08.989Z,97.70
2022-08-30T06:36:00.432Z,97.70
2022-08-30T06:38:28.461Z,97.60
2022-08-30T06:40:55.263Z,97.60
2022-08-30T06:43:22.058Z,97.40
2022-08-30T06:45:48.837Z,97.50
2022-08-30T06:48:15.776Z,97.40
2022-08-30T06:50:43.477Z,97.40
2022-08-30T06:53:10.314Z,97.50
2022-08-30T06:55:37.404Z,97.30
2022-08-30T06:58:07.856Z,97.10
2022-08-30T07:00:34.674Z,97.00
2022-08-30T07:03:03.847Z,97.10
2022-08-30T07:05:30.624Z,97.00
2022-08-30T07:07:57.398Z,96.80
2022-08-30T07:10:24.220Z,96.70
2022-08-30T07:12:51.166Z,96.60
2022-08-30T07:15:22.819Z,96.50
2022-08-30T07:18:08.332Z,96.40
2022-08-30T07:20:40.246Z,96.10
2022-08-30T07:23:07.816Z,96.20
2022-08-30T07:25:36.917Z,96.30
2022-08-30T07:28:04.813Z,96.10
2022-08-30T07:30:34.772Z,96.00
2022-08-30T07:33:01.799Z,96.10
2022-08-30T07:35:28.638Z,95.80
2022-08-30T07:37:55.530Z,95.40
2022-08-30T07:40:22.614Z,95.40
2022-08-30T07:42:49.413Z,95.30
2022-08-30T07:45:16.464Z,95.20
2022-08-30T07:47:43.192Z,95.00
2022-08-30T07:50:09.980Z,94.90
2022-08-30T07:55:06.311Z,94.60
2022-08-30T07:57:34.479Z,94.30
2022-08-30T08:00:01.865Z,94.10
2022-08-30T08:02:28.749Z,94.00
2022-08-30T08:04:55.587Z,94.10
2022-08-30T08:07:22.336Z,94.10
2022-08-30T08:09:49.474Z,94.00
2022-08-30T08:12:16.330Z,93.90
2022-08-30T08:14:43.115Z,93.70
2022-08-30T08:17:10.023Z,93.30
2022-08-30T08:19:36.782Z,93.10
2022-08-30T08:22:19.875Z,92.90
2022-08-30T08:24:47.204Z,92.80
2022-08-30T08:27:13.920Z,92.60
2022-08-30T08:29:40.746Z,92.40
2022-08-30T08:32:07.594Z,92.30
2022-08-30T08:34:36.013Z,92.10
2022-08-30T08:37:03.137Z,92.00
2022-08-30T08:39:29.920Z,91.50
2022-08-30T08:42:08.115Z,91.80
2022-08-30T08:47:33.109Z,91.80
2022-08-30T08:50:03.214Z,91.40
2022-08-30T08:52:54.936Z,90.90
2022-08-30T08:55:23.385Z,91.20
2022-08-30T08:57:52.614Z,91.20
2022-08-30T09:00:19.536Z,91.30
2022-08-30T09:02:55.878Z,91.60
2022-08-30T09:05:28.552Z,91.60
2022-08-30T09:08:10.133Z,91.50
2022-08-30T09:10:49.958Z,91.30
2022-08-30T09:13:18.853Z,90.90
2022-08-30T09:15:47.406Z,91.30
2022-08-30T09:18:19.652Z,91.20
2022-08-30T09:20:49.244Z,90.80
2022-08-30T09:23:15.938Z,90.80
2022-08-30T09:26:07.191Z,90.60
2022-08-30T09:28:51.013Z,90.50
2022-08-30T09:31:23.697Z,90.20
2022-08-30T09:34:25.935Z,90.00
2022-08-30T09:36:56.018Z,90.20
2022-08-30T09:39:37.349Z,89.60
2022-08-30T09:42:19.788Z,89.60
2022-08-30T09:44:46.630Z,89.10
2022-08-30T09:47:31.488Z,89.30
2022-08-30T09:50:15.077Z,88.80
2022-08-30T09:53:11.743Z,87.70
2022-08-30T09:56:01.712Z,87.30
2022-08-30T09:58:56.533Z,87.00
2022-08-30T10:01:55.659Z,85.30
2022-08-30T10:04:40.196Z,85.20
2022-08-30T10:07:12.162Z,83.70
2022-08-30T10:10:02.842Z,84.40
2022-08-30T10:12:39.855Z,84.50
2022-08-30T10:15:21.627Z,84.30
2022-08-30T10:17:48.778Z,83.70
2022-08-30T10:20:31.684Z,83.70
2022-08-30T10:23:03.935Z,82.80
2022-08-30T10:25:41.730Z,81.50
2022-08-30T10:28:19.109Z,79.30
2022-08-30T10:30:54.275Z,79.50
2022-08-30T10:33:28.704Z,79.20
2022-08-30T10:36:03.543Z,79.80
2022-08-30T10:38:37.829Z,76.10
2022-08-30T10:41:36.832Z,74.70
2022-08-30T10:44:27.803Z,74.40
2022-08-30T10:47:23.002Z,72.20
2022-08-30T10:49:55.485Z,70.90
2022-08-30T10:52:35.361Z,70.40
2022-08-30T10:55:11.348Z,69.40
2022-08-30T10:57:38.814Z,68.40
2022-08-30T11:00:14.111Z,67.80
2022-08-30T11:03:02.092Z,67.60
2022-08-30T11:05:59.896Z,67.30
2022-08-30T11:08:41.728Z,66.80
2022-08-30T11:11:16.417Z,65.80
2022-08-30T11:13:44.905Z,64.60
2022-08-30T11:16:19.032Z,63.40
2022-08-30T11:18:54.006Z,63.40
2022-08-30T11:21:25.021Z,63.80
2022-08-30T11:24:12.590Z,63.10
2022-08-30T11:26:45.908Z,64.60
2022-08-30T11:29:31.790Z,64.30
2022-08-30T11:32:21.273Z,64.80
2022-08-30T11:34:47.952Z,63.80
2022-08-30T11:37:37.107Z,64.30
2022-08-30T11:40:13.231Z,64.60
2022-08-30T11:42:49.318Z,64.30
2022-08-30T11:45:26.742Z,64.30
2022-08-30T11:48:04.471Z,63.60
2022-08-30T11:50:55.208Z,64.30
2022-08-30T11:53:46.497Z,64.40
2022-08-30T11:56:22.496Z,65.10
2022-08-30T11:59:01.784Z,65.30
2022-08-30T12:01:51.259Z,65.10
2022-08-30T12:04:18.022Z,65.20
2022-08-30T12:06:51.525Z,65.20
2022-08-30T12:09:21.183Z,65.30
2022-08-30T12:12:07.193Z,65.60
2022-08-30T12:14:44.637Z,66.30
2022-08-30T12:17:42.149Z,66.20
2022-08-30T12:20:47.186Z,65.90
2022-08-30T12:23:19.160Z,65.60
2022-08-30T12:25:46.603Z,65.20
2022-08-30T12:28:42.143Z,64.80
2022-08-30T12:31:19.938Z,65.60
2022-08-30T12:33:55.500Z,65.80
2022-08-30T12:36:48.998Z,66.20
2022-08-30T12:39:20.419Z,66.20
2022-08-30T12:41:47.257Z,66.20
2022-08-30T12:44:25.798Z,66.00
2022-08-30T12:46:59.515Z,66.00
2022-08-30T12:49:29.968Z,65.40
2022-08-30T12:52:15.841Z,65.00
2022-08-30T12:54:45.257Z,64.70
2022-08-30T12:57:34.278Z,64.90
2022-08-30T13:00:01.975Z,64.40
2022-08-30T13:02:44.686Z,63.90
2022-08-30T13:05:48.069Z,62.80
2022-08-30T13:08:18.479Z,62.20
2022-08-30T13:11:24.878Z,61.70
2022-08-30T13:14:29.755Z,61.00
2022-08-30T13:17:20.332Z,60.00
2022-08-30T13:19:58.287Z,60.30
2022-08-30T13:22:31.259Z,60.00
2022-08-30T13:24:58.730Z,60.00
2022-08-30T13:27:26.933Z,59.80
2022-08-30T13:29:54.323Z,59.60
2022-08-30T13:32:22.350Z,58.80
2022-08-30T13:34:49.308Z,58.00
2022-08-30T13:40:14.511Z,57.20
2022-08-30T13:42:42.902Z,56.00
2022-08-30T13:45:43.618Z,55.80
2022-08-30T13:48:00.913Z,55.70
2022-08-30T13:50:28.322Z,56.30
2022-08-30T13:52:57.398Z,55.20
2022-08-30T13:55:24.201Z,54.70
2022-08-30T13:57:55.092Z,54.80
2022-08-30T14:00:23.711Z,54.00
2022-08-30T14:02:55.915Z,53.60
2022-08-30T14:11:05.723Z,53.90
2022-08-30T14:13:32.926Z,53.70
2022-08-30T14:18:48.956Z,53.20
2022-08-30T14:21:16.070Z,53.10
2022-08-30T14:23:42.925Z,53.40
2022-08-30T14:26:24.537Z,53.90
2022-08-30T14:28:53.051Z,54.20
2022-08-30T14:31:20.290Z,54.70
2022-08-30T14:33:47.569Z,54.80
2022-08-30T14:36:15.485Z,55.00
2022-08-30T14:38:43.566Z,55.00
2022-08-30T14:41:11.064Z,55.10
2022-08-30T14:43:40.587Z,54.90
2022-08-30T14:46:08.990Z,54.60
2022-08-30T14:48:38.501Z,54.80
2022-08-30T14:51:16.939Z,54.90
2022-08-30T14:53:44.862Z,54.80
2022-08-30T14:56:15.582Z,55.50
2022-08-30T14:58:42.954Z,55.80
2022-08-30T15:01:12.353Z,55.00
2022-08-30T15:03:40.829Z,55.20
2022-08-30T15:06:09.180Z,54.90
2022-08-30T15:08:37.207Z,55.20
2022-08-30T15:11:09.433Z,55.00
2022-08-30T15:13:36.714Z,55.10
2022-08-30T15:16:10.907Z,55.20
2022-08-30T15:18:37.980Z,55.30
2022-08-30T15:21:04.909Z,55.00
2022-08-30T15:23:32.049Z,54.90
2022-08-30T15:25:59.519Z,55.30
2022-08-30T15:28:26.324Z,54.80
2022-08-30T15:30:53.104Z,54.40
2022-08-30T15:33:19.828Z,54.70
2022-08-30T15:35:46.636Z,54.60
2022-08-30T15:38:13.496Z,54.80
2022-08-30T15:40:40.536Z,55.20
2022-08-30T15:43:07.306Z,55.60
2022-08-30T15:45:34.029Z,55.90
2022-08-30T15:48:00.936Z,56.30
2022-08-30T15:50:28.407Z,56.20
2022-08-30T15:52:55.224Z,56.50
2022-08-30T15:55:22.187Z,56.60
2022-08-30T15:57:49.116Z,57.20
2022-08-30T16:00:16.372Z,57.60
2022-08-30T16:02:43.950Z,57.40
2022-08-30T16:05:10.915Z,57.50
2022-08-30T16:07:40.870Z,57.40
2022-08-30T16:10:08.831Z,57.70
2022-08-30T16:12:35.569Z,57.40
2022-08-30T16:15:02.273Z,57.60
2022-08-30T16:17:29.029Z,57.70
2022-08-30T16:19:58.936Z,57.90
2022-08-30T16:22:26.472Z,58.10
2022-08-30T16:24:53.252Z,58.10
2022-08-30T16:27:22.028Z,58.30
2022-08-30T16:29:50.133Z,58.60
2022-08-30T16:32:17.570Z,58.60
2022-08-30T16:34:45.145Z,58.40
2022-08-30T16:37:11.943Z,58.40
2022-08-30T16:39:38.708Z,58.60
2022-08-30T16:42:06.769Z,58.90
2022-08-30T16:44:33.877Z,58.80
2022-08-30T16:47:02.730Z,58.90
2022-08-30T16:49:29.758Z,59.10
2022-08-30T16:51:56.578Z,59.50
2022-08-30T16:54:23.645Z,59.50
2022-08-30T16:56:50.733Z,59.80
2022-08-30T16:59:17.707Z,60.00
2022-08-30T17:01:45.726Z,60.00
2022-08-30T17:04:18.523Z,59.90
2022-08-30T17:06:48.048Z,60.30
2022-08-30T17:09:17.393Z,60.10
2022-08-30T17:11:44.719Z,60.10
2022-08-30T17:14:12.129Z,60.30
2022-08-30T17:16:39.143Z,60.70
2022-08-30T17:19:09.066Z,60.90
2022-08-30T17:21:36.373Z,60.90
2022-08-30T17:24:05.937Z,61.20
2022-08-30T17:26:34.546Z,61.20
2022-08-30T17:29:02.275Z,61.30
2022-08-30T17:31:31.129Z,61.50
2022-08-30T17:34:02.799Z,61.40
2022-08-30T17:36:35.442Z,61.30
2022-08-30T17:39:22.138Z,61.90
2022-08-30T17:41:51.568Z,62.20
2022-08-30T17:44:25.654Z,62.20
2022-08-30T17:46:53.297Z,62.30
2022-08-30T17:49:21.145Z,62.70
2022-08-30T17:51:54.172Z,62.90
2022-08-30T17:54:24.475Z,63.40
2022-08-30T17:56:52.680Z,63.50
2022-08-30T17:59:19.497Z,63.30
2022-08-30T18:01:52.453Z,63.60
2022-08-30T18:04:19.664Z,63.80
2022-08-30T18:06:46.858Z,63.70
2022-08-30T18:09:13.584Z,63.70
2022-08-30T18:11:41.120Z,65.80
2022-08-30T18:14:10.876Z,66.20
2022-08-30T18:16:39.098Z,65.30
2022-08-30T18:19:17.378Z,66.20
2022-08-30T18:21:44.487Z,66.60
2022-08-30T18:24:11.300Z,66.80
2022-08-30T18:26:43.162Z,67.70
2022-08-30T18:29:10.933Z,66.80
2022-08-30T18:31:37.746Z,66.40
2022-08-30T18:34:04.664Z,66.60
2022-08-30T18:36:31.574Z,67.60
2022-08-30T18:38:58.693Z,66.80
2022-08-30T18:41:26.594Z,65.90
2022-08-30T18:44:10.889Z,65.80
2022-08-30T18:46:55.986Z,64.90
2022-08-30T18:49:25.245Z,65.10
2022-08-30T18:51:52.268Z,65.60
2022-08-30T18:54:19.404Z,65.50
2022-08-30T18:56:46.469Z,65.70
2022-08-30T18:59:13.511Z,65.70
2022-08-30T19:01:41.170Z,65.40
2022-08-30T19:04:08.484Z,66.00
2022-08-30T19:09:22.883Z,65.20
2022-08-30T19:11:49.784Z,65.50
2022-08-30T19:14:19.365Z,65.60
2022-08-30T19:16:46.294Z,65.50
2022-08-30T19:19:13.127Z,65.40
2022-08-30T19:21:40.088Z,65.20
2022-08-30T19:24:08.352Z,64.80
2022-08-30T19:26:37.590Z,65.20
2022-08-30T19:29:06.463Z,65.00
2022-08-30T19:31:33.818Z,65.20
2022-08-30T19:34:01.101Z,64.80
2022-08-30T19:36:29.224Z,64.10
2022-08-30T19:38:56.370Z,64.20
2022-08-30T19:41:23.643Z,64.70
2022-08-30T19:43:51.695Z,64.80
2022-08-30T19:46:19.127Z,64.70
2022-08-30T19:48:46.242Z,64.10
2022-08-30T19:51:15.278Z,63.80
2022-08-30T19:53:43.379Z,63.80
2022-08-30T19:56:10.946Z,64.00
2022-08-30T19:58:38.088Z,63.60
2022-08-30T20:01:12.289Z,63.90
2022-08-30T20:03:52.911Z,64.10
2022-08-30T20:06:24.159Z,63.90
2022-08-30T20:08:51.825Z,64.20
2022-08-30T20:11:23.933Z,64.50
2022-08-30T20:13:50.892Z,64.80
2022-08-30T20:16:18.263Z,64.40
2022-08-30T20:18:45.692Z,63.90
2022-08-30T20:21:14.465Z,63.90
2022-08-30T20:23:43.286Z,63.80
2022-08-30T20:24:31.780Z,65.60
2022-08-30T20:26:12.170Z,63.90
2022-08-30T20:28:39.969Z,64.00
2022-08-30T20:31:08.497Z,64.60
2022-08-30T20:33:39.501Z,65.30
2022-08-30T20:36:09.716Z,65.60
2022-08-30T20:38:36.911Z,66.10
2022-08-30T20:41:10.545Z,66.30
2022-08-30T20:43:38.280Z,67.20
2022-08-30T20:46:10.286Z,66.60
2022-08-30T20:48:38.182Z,66.50
2022-08-30T20:51:09.558Z,67.30
2022-08-30T20:53:36.852Z,67.30
2022-08-30T20:56:04.586Z,67.10
2022-08-30T20:58:31.486Z,66.70
2022-08-30T21:00:58.387Z,66.80
2022-08-30T21:03:26.155Z,66.80
2022-08-30T21:05:55.900Z,66.60
2022-08-30T21:08:22.741Z,66.80
2022-08-30T21:10:49.754Z,66.90
2022-08-30T21:13:17.223Z,67.50
2022-08-30T21:15:46.088Z,67.60
2022-08-30T21:18:14.234Z,67.60
2022-08-30T21:20:41.544Z,68.20
2022-08-30T21:23:08.791Z,68.20
2022-08-30T21:25:38.843Z,68.50
2022-08-30T21:28:06.556Z,69.10
2022-08-30T21:30:34.555Z,69.10
2022-08-30T21:33:03.526Z,69.00
2022-08-30T21:35:48.837Z,68.90
2022-08-30T21:38:16.956Z,68.70
2022-08-30T21:40:44.025Z,68.30
2022-08-30T21:43:11.186Z,68.30
2022-08-30T21:45:39.088Z,68.60
2022-08-30T21:48:06.384Z,68.20
2022-08-30T21:50:33.390Z,68.60
2022-08-30T21:53:00.730Z,68.90
2022-08-30T21:55:27.555Z,69.30
2022-08-30T21:57:54.999Z,69.90
2022-08-30T22:00:22.082Z,70.20
2022-08-30T22:02:49.256Z,70.40
2022-08-30T22:05:20.213Z,71.00
2022-08-30T22:07:47.062Z,70.70
2022-08-30T22:10:15.520Z,71.60
2022-08-30T22:12:42.318Z,71.00
2022-08-30T22:15:09.719Z,71.40
2022-08-30T22:17:36.517Z,71.80
2022-08-30T22:20:05.271Z,71.80
2022-08-30T22:22:32.489Z,72.10
2022-08-30T22:24:59.385Z,72.00
2022-08-30T22:27:26.263Z,72.00
2022-08-30T22:29:53.070Z,71.70
2022-08-30T22:32:19.895Z,71.00
2022-08-30T22:34:46.993Z,70.50
2022-08-30T22:37:13.913Z,70.70
2022-08-30T22:39:40.623Z,70.40
2022-08-30T22:42:09.792Z,70.90
2022-08-30T22:44:36.584Z,70.70
2022-08-30T22:47:03.549Z,70.40
2022-08-30T22:49:30.870Z,69.80
2022-08-30T22:51:57.577Z,69.60
2022-08-30T22:54:24.329Z,69.00
2022-08-30T22:56:51.165Z,69.00
2022-08-30T22:59:17.938Z,69.70
2022-08-30T23:01:45.372Z,69.00
2022-08-30T23:04:13.088Z,68.80
2022-08-30T23:06:40.716Z,68.90
2022-08-30T23:09:08.410Z,68.60
2022-08-30T23:11:38.350Z,68.70
2022-08-30T23:14:06.390Z,68.80
2022-08-30T23:16:34.317Z,69.10
2022-08-30T23:19:01.061Z,69.10
2022-08-30T23:21:30.109Z,69.00
2022-08-30T23:24:16.471Z,69.00
2022-08-30T23:27:03.370Z,69.70
2022-08-30T23:29:49.654Z,70.10
2022-08-30T23:32:35.135Z,70.20
2022-08-30T23:35:20.645Z,70.80
2022-08-30T23:38:12.608Z,71.30
2022-08-30T23:40:58.114Z,71.50
2022-08-30T23:43:43.871Z,71.40
2022-08-30T23:46:29.351Z,72.00
2022-08-30T23:49:14.764Z,72.30
2022-08-30T23:52:00.420Z,71.90
2022-08-30T23:54:45.930Z,72.40
2022-08-30T23:57:31.491Z,72.50
